createdAt,value
2022-10-11T00:02:15.334Z,2.38
2022-10-11T00:04:43.034Z,2.53
2022-10-11T00:07:10.413Z,2.42
2022-10-11T00:09:37.612Z,2.83
2022-10-11T00:12:05.036Z,2.85
2022-10-11T00:14:34.253Z,2.80
2022-10-11T00:17:01.740Z,2.53
2022-10-11T00:19:28.994Z,3.05
2022-10-11T00:21:56.271Z,2.67
2022-10-11T00:24:23.460Z,2.67
2022-10-11T00:26:50.594Z,2.53
2022-10-11T00:29:17.876Z,2.67
2022-10-11T00:31:45.045Z,2.70
2022-10-11T00:34:13.489Z,2.90
2022-10-11T00:36:40.732Z,2.67
2022-10-11T00:39:07.831Z,2.53
2022-10-11T00:41:35.111Z,2.85
2022-10-11T00:44:13.182Z,2.58
2022-10-11T00:46:43.730Z,2.85
2022-10-11T00:49:37.158Z,3.33
2022-10-11T00:52:07.758Z,2.75
2022-10-11T00:54:38.274Z,2.92
2022-10-11T00:57:13.241Z,2.42
2022-10-11T00:59:43.899Z,3.08
2022-10-11T01:02:11.724Z,2.85
2022-10-11T01:04:39.586Z,3.47
2022-10-11T01:07:06.958Z,2.85
2022-10-11T01:09:34.359Z,2.72
2022-10-11T01:12:05.354Z,2.67
2022-10-11T01:15:11.279Z,3.58
2022-10-11T01:17:57.196Z,2.50
2022-10-11T01:20:51.349Z,3.10
2022-10-11T01:23:34.950Z,3.28
2022-10-11T01:26:14.326Z,3.05
2022-10-11T01:28:44.506Z,3.33
2022-10-11T01:31:30.675Z,2.72
2022-10-11T01:34:05.494Z,2.97
2022-10-11T01:36:37.456Z,3.15
2022-10-11T01:39:12.317Z,3.38
2022-10-11T01:41:42.914Z,2.83
2022-10-11T01:44:11.940Z,4.25
2022-10-11T01:46:39.295Z,2.88
2022-10-11T01:49:06.904Z,2.60
2022-10-11T01:51:37.907Z,3.60
2022-10-11T01:55:11.017Z,3.33
2022-10-11T01:57:53.617Z,5.35
2022-10-11T02:00:26.178Z,5.63
2022-10-11T02:03:17.045Z,6.68
2022-10-11T02:06:03.046Z,8.18
2022-10-11T02:08:39.224Z,8.23
2022-10-11T02:11:23.135Z,7.25
2022-10-11T02:14:08.246Z,7.65
2022-10-11T02:16:51.318Z,7.60
2022-10-11T02:19:22.663Z,7.45
2022-10-11T02:21:54.805Z,9.38
2022-10-11T02:24:43.645Z,9.70
2022-10-11T02:27:11.725Z,8.88
2022-10-11T02:29:40.820Z,8.77
2022-10-11T02:32:09.629Z,9.85
2022-10-11T02:34:41.673Z,9.00
2022-10-11T02:37:44.910Z,9.45
2022-10-11T02:40:34.045Z,9.65
2022-10-11T02:43:48.590Z,11.35
2022-10-11T02:46:17.809Z,11.52
2022-10-11T02:48:45.037Z,11.93
2022-10-11T02:51:14.077Z,12.55
2022-10-11T02:53:41.354Z,11.82
2022-10-11T02:56:08.820Z,10.13
2022-10-11T02:58:36.038Z,10.20
2022-10-11T03:01:03.304Z,7.50
2022-10-11T03:03:30.510Z,6.30
2022-10-11T03:06:01.771Z,6.07
2022-10-11T03:08:29.541Z,6.05
2022-10-11T03:10:56.652Z,6.25
2022-10-11T03:13:24.134Z,5.13
2022-10-11T03:16:02.885Z,16.80
2022-10-11T03:18:34.415Z,6.07
2022-10-11T03:21:01.615Z,5.25
2022-10-11T03:23:28.891Z,6.18
2022-10-11T03:25:56.593Z,5.32
2022-10-11T03:28:23.838Z,6.18
2022-10-11T03:30:51.612Z,6.65
2022-10-11T03:33:18.994Z,14.38
2022-10-11T03:35:47.651Z,11.55
2022-10-11T03:38:16.953Z,8.90
2022-10-11T03:40:44.303Z,6.25
2022-10-11T03:43:11.941Z,6.45
2022-10-11T03:45:42.509Z,5.38
2022-10-11T03:48:10.817Z,5.95
2022-10-11T03:50:38.793Z,7.28
2022-10-11T03:53:07.073Z,6.60
2022-10-11T03:55:34.437Z,7.70
2022-10-11T03:58:01.578Z,8.88
2022-10-11T04:00:28.754Z,9.10
2022-10-11T04:02:56.013Z,8.80
2022-10-11T04:05:23.185Z,9.70
2022-10-11T04:07:50.434Z,10.70
2022-10-11T04:10:17.871Z,11.38
2022-10-11T04:12:45.179Z,10.95
2022-10-11T04:15:15.381Z,11.90
2022-10-11T04:17:42.549Z,9.10
2022-10-11T04:20:10.327Z,11.98
2022-10-11T04:22:38.605Z,10.95
2022-10-11T04:25:07.399Z,12.25
2022-10-11T04:27:35.478Z,8.95
2022-10-11T04:30:02.710Z,8.40
2022-10-11T04:32:29.823Z,9.80
2022-10-11T04:34:57.056Z,9.18
2022-10-11T04:37:24.312Z,10.30
2022-10-11T04:39:51.480Z,9.98
2022-10-11T04:42:18.659Z,12.43
2022-10-11T04:44:45.877Z,12.65
2022-10-11T04:47:13.343Z,11.07
2022-10-11T04:49:40.545Z,10.85
2022-10-11T04:52:07.695Z,12.45
2022-10-11T04:54:34.965Z,17.15
2022-10-11T04:57:02.127Z,10.82
2022-10-11T04:59:29.281Z,17.85
2022-10-11T05:01:56.570Z,13.85
2022-10-11T05:04:23.805Z,13.55
2022-10-11T05:06:51.361Z,15.02
2022-10-11T05:09:18.575Z,13.82
2022-10-11T05:11:45.767Z,11.60
2022-10-11T05:14:12.997Z,11.65
2022-10-11T05:16:40.276Z,15.88
2022-10-11T05:19:07.593Z,8.73
2022-10-11T05:21:34.828Z,10.20
2022-10-11T05:24:02.080Z,7.72
2022-10-11T05:26:30.061Z,15.65
2022-10-11T05:28:57.763Z,9.68
2022-10-11T05:31:25.084Z,9.25
2022-10-11T05:33:52.537Z,10.18
2022-10-11T05:36:19.774Z,7.30
2022-10-11T05:38:47.084Z,7.43
2022-10-11T05:41:15.434Z,6.13
2022-10-11T05:43:42.802Z,9.15
2022-10-11T05:46:10.698Z,8.15
2022-10-11T05:48:37.866Z,5.82
2022-10-11T05:51:10.059Z,7.07
2022-10-11T05:53:38.202Z,12.20
2022-10-11T05:56:06.255Z,7.28
2022-10-11T05:58:33.787Z,10.23
2022-10-11T06:01:01.042Z,13.85
2022-10-11T06:03:28.325Z,10.25
2022-10-11T06:05:57.230Z,7.97
2022-10-11T06:08:31.231Z,6.25
2022-10-11T06:10:58.498Z,6.38
2022-10-11T06:13:25.646Z,11.30
2022-10-11T06:15:53.159Z,6.32
2022-10-11T06:18:20.404Z,12.10
2022-10-11T06:20:47.542Z,10.25
2022-10-11T06:23:14.860Z,11.90
2022-10-11T06:25:41.927Z,11.30
2022-10-11T06:28:09.121Z,7.38
2022-10-11T06:30:38.548Z,13.30
2022-10-11T06:33:05.654Z,10.38
2022-10-11T06:35:32.799Z,11.30
2022-10-11T06:37:59.964Z,11.45
2022-10-11T06:40:27.194Z,11.45
2022-10-11T06:42:54.571Z,13.07
2022-10-11T06:45:21.776Z,10.20
2022-10-11T06:47:49.013Z,8.63
2022-10-11T06:50:16.238Z,8.77
2022-10-11T06:52:43.501Z,9.57
2022-10-11T06:55:10.739Z,10.85
2022-10-11T06:57:37.989Z,9.52
2022-10-11T07:00:11.691Z,8.32
2022-10-11T07:02:39.714Z,13.77
2022-10-11T07:05:07.654Z,12.38
2022-10-11T07:07:34.850Z,18.30
2022-10-11T07:10:01.953Z,15.15
2022-10-11T07:12:29.209Z,12.68
2022-10-11T07:14:56.293Z,13.93
2022-10-11T07:17:23.416Z,22.85
2022-10-11T07:19:50.549Z,10.05
2022-10-11T07:22:17.615Z,13.20
2022-10-11T07:24:44.833Z,10.18
2022-10-11T07:27:12.137Z,16.25
2022-10-11T07:29:39.305Z,10.05
2022-10-11T07:32:06.818Z,9.50
2022-10-11T07:34:33.997Z,8.90
2022-10-11T07:37:01.247Z,10.23
2022-10-11T07:39:28.554Z,11.13
2022-10-11T07:41:55.808Z,15.98
2022-10-11T07:44:23.113Z,13.63
2022-10-11T07:46:50.291Z,10.90
2022-10-11T07:49:17.469Z,15.70
2022-10-11T07:51:44.713Z,14.57
2022-10-11T07:54:11.939Z,14.38
2022-10-11T07:56:40.426Z,14.15
2022-10-11T07:59:08.388Z,18.38
2022-10-11T08:01:35.621Z,17.30
2022-10-11T08:04:02.965Z,17.52
2022-10-11T08:06:32.880Z,21.85
2022-10-11T08:09:01.169Z,29.20
2022-10-11T08:11:35.204Z,19.77
2022-10-11T08:14:04.666Z,27.35
2022-10-11T08:16:32.180Z,34.58
2022-10-11T08:18:59.502Z,15.70
2022-10-11T08:21:27.026Z,18.67
2022-10-11T08:23:54.276Z,31.85
2022-10-11T08:26:21.564Z,30.67
2022-10-11T08:28:49.271Z,39.55
2022-10-11T08:31:17.134Z,33.95
2022-10-11T08:33:44.734Z,18.30
2022-10-11T08:36:12.756Z,22.00
2022-10-11T08:38:40.571Z,25.88
2022-10-11T08:41:31.190Z,13.18
2022-10-11T08:44:21.641Z,15.85
2022-10-11T08:46:58.186Z,10.35
2022-10-11T08:49:32.713Z,18.42
2022-10-11T08:52:04.805Z,8.38
2022-10-11T08:54:41.013Z,13.90
2022-10-11T08:57:12.372Z,15.70
2022-10-11T08:59:51.311Z,14.50
2022-10-11T09:02:49.205Z,17.38
2022-10-11T09:05:18.886Z,20.70
2022-10-11T09:08:16.946Z,14.27
2022-10-11T09:10:57.507Z,21.70
2022-10-11T09:13:35.047Z,25.17
2022-10-11T09:16:25.137Z,29.70
2022-10-11T09:19:21.952Z,30.23
2022-10-11T09:22:15.864Z,28.52
2022-10-11T09:25:15.587Z,26.83
2022-10-11T09:28:04.123Z,27.83
2022-10-11T09:30:33.395Z,16.85
2022-10-11T09:33:09.071Z,16.58
2022-10-11T09:35:49.507Z,13.43
2022-10-11T09:38:29.385Z,13.60
2022-10-11T09:40:59.410Z,12.30
2022-10-11T09:43:26.670Z,13.25
2022-10-11T09:45:53.826Z,16.70
2022-10-11T09:48:25.141Z,14.48
2022-10-11T09:50:54.995Z,13.50
2022-10-11T09:53:51.221Z,13.45
2022-10-11T09:56:18.683Z,13.43
2022-10-11T09:58:45.929Z,12.88
2022-10-11T10:01:23.964Z,12.75
2022-10-11T10:04:08.006Z,13.88
2022-10-11T10:06:35.290Z,12.88
2022-10-11T10:09:28.973Z,14.23
2022-10-11T10:11:57.349Z,15.13
2022-10-11T10:14:31.033Z,14.90
2022-10-11T10:17:16.353Z,15.45
2022-10-11T10:19:50.930Z,14.50
2022-10-11T10:22:24.495Z,14.13
2022-10-11T10:24:52.930Z,13.88
2022-10-11T10:27:27.677Z,12.93
2022-10-11T10:30:13.727Z,13.43
2022-10-11T10:33:00.144Z,14.00
2022-10-11T10:35:32.134Z,12.75
2022-10-11T10:38:12.520Z,13.85
2022-10-11T10:40:52.822Z,12.77
2022-10-11T10:43:26.106Z,11.85
2022-10-11T10:46:03.759Z,10.43
2022-10-11T10:52:03.330Z,12.38
2022-10-11T10:55:12.265Z,12.90
2022-10-11T10:57:57.230Z,11.63
2022-10-11T11:00:25.320Z,11.98
2022-10-11T11:03:01.859Z,12.13
2022-10-11T11:05:48.526Z,12.52
2022-10-11T11:08:39.031Z,11.48
2022-10-11T11:11:39.485Z,12.63
2022-10-11T11:14:19.442Z,11.68
2022-10-11T11:17:06.761Z,11.40
2022-10-11T11:19:55.159Z,10.02
2022-10-11T11:22:22.350Z,9.75
2022-10-11T11:25:18.402Z,9.57
2022-10-11T11:28:11.926Z,9.25
2022-10-11T11:30:59.775Z,9.73
2022-10-11T11:33:48.541Z,9.45
2022-10-11T11:36:26.377Z,9.95
2022-10-11T11:38:59.999Z,9.55
2022-10-11T11:41:33.583Z,8.95
2022-10-11T11:44:03.872Z,8.35
2022-10-11T11:47:18.069Z,8.52
2022-10-11T11:49:55.499Z,8.98
2022-10-11T11:52:44.327Z,8.93
2022-10-11T11:55:33.585Z,8.75
2022-10-11T11:58:27.171Z,8.88
2022-10-11T12:01:28.848Z,8.68
2022-10-11T12:04:07.362Z,8.07
2022-10-11T12:06:47.809Z,6.30
2022-10-11T12:09:23.914Z,6.15
2022-10-11T12:12:05.001Z,4.65
2022-10-11T12:14:39.820Z,5.18
2022-10-11T12:17:18.747Z,4.40
2022-10-11T12:20:28.968Z,3.88
2022-10-11T12:23:31.439Z,4.30
2022-10-11T12:26:29.572Z,4.13
2022-10-11T12:29:41.187Z,4.05
2022-10-11T12:32:11.267Z,4.40
2022-10-11T12:37:20.095Z,4.63
2022-10-11T12:39:55.477Z,4.47
2022-10-11T12:42:32.248Z,4.88
2022-10-11T12:45:12.301Z,3.85
2022-10-11T12:48:00.203Z,3.78
2022-10-11T12:50:39.362Z,5.40
2022-10-11T12:53:26.118Z,4.30
2022-10-11T12:56:38.534Z,3.85
2022-10-11T12:59:07.018Z,3.50
2022-10-11T13:01:47.693Z,3.00
2022-10-11T13:04:19.116Z,3.88
2022-10-11T13:06:57.011Z,3.13
2022-10-11T13:09:44.220Z,3.60
2022-10-11T13:12:18.397Z,3.22
2022-10-11T13:15:07.331Z,3.53
2022-10-11T13:17:39.440Z,3.58
2022-10-11T13:20:21.772Z,3.33
2022-10-11T13:22:51.715Z,3.03
2022-10-11T13:25:22.770Z,3.30
2022-10-11T13:27:53.197Z,3.60
2022-10-11T13:30:44.151Z,3.05
2022-10-11T13:33:21.779Z,2.85
2022-10-11T13:35:49.049Z,3.35
2022-10-11T13:38:32.262Z,3.45
2022-10-11T13:41:03.526Z,2.90
2022-10-11T13:43:31.880Z,3.10
2022-10-11T13:46:06.594Z,3.08
2022-10-11T13:48:41.314Z,3.20
2022-10-11T13:51:17.989Z,3.65
2022-10-11T13:53:59.752Z,2.90
2022-10-11T13:56:29.448Z,3.30
2022-10-11T13:58:57.295Z,3.50
2022-10-11T14:01:45.658Z,3.08
2022-10-11T14:04:17.938Z,3.30
2022-10-11T14:06:52.168Z,3.15
2022-10-11T14:09:39.285Z,3.17
2022-10-11T14:12:28.724Z,3.75
2022-10-11T14:14:55.964Z,3.40
2022-10-11T14:17:38.673Z,3.65
2022-10-11T14:20:34.190Z,4.13
2022-10-11T14:23:01.427Z,3.67
2022-10-11T14:25:28.524Z,4.38
2022-10-11T14:27:55.750Z,3.75
2022-10-11T14:30:27.068Z,3.65
2022-10-11T14:32:58.033Z,3.65
2022-10-11T14:35:29.439Z,3.53
2022-10-11T14:37:56.836Z,3.33
2022-10-11T14:40:30.146Z,3.30
2022-10-11T14:42:57.464Z,2.87
2022-10-11T14:45:25.071Z,2.60
2022-10-11T14:47:52.369Z,2.75
2022-10-11T14:50:51.939Z,2.50
2022-10-11T14:53:19.135Z,2.72
2022-10-11T14:55:46.525Z,2.72
2022-10-11T14:58:16.159Z,3.10
2022-10-11T15:00:44.145Z,3.15
2022-10-11T15:03:11.330Z,3.38
2022-10-11T15:05:38.778Z,3.67
2022-10-11T15:08:07.539Z,3.42
2022-10-11T15:10:38.776Z,3.08
2022-10-11T15:13:07.358Z,3.22
2022-10-11T15:15:37.028Z,2.95
2022-10-11T15:18:09.168Z,3.22
2022-10-11T15:20:39.650Z,2.58
2022-10-11T15:23:09.862Z,2.53
2022-10-11T15:25:38.134Z,2.83
2022-10-11T15:28:06.292Z,2.50
2022-10-11T15:30:41.402Z,2.90
2022-10-11T15:33:09.461Z,3.13
2022-10-11T15:35:36.515Z,3.40
2022-10-11T15:38:03.865Z,3.22
2022-10-11T15:40:36.171Z,3.30
2022-10-11T15:43:03.917Z,3.60
2022-10-11T15:45:31.312Z,3.35
2022-10-11T15:47:58.822Z,3.55
2022-10-11T15:50:34.759Z,4.00
2022-10-11T15:53:05.864Z,4.53
2022-10-11T15:55:35.258Z,3.13
2022-10-11T15:58:02.539Z,3.58
2022-10-11T16:00:30.893Z,3.17
2022-10-11T16:02:59.134Z,3.90
2022-10-11T16:05:27.839Z,3.08
2022-10-11T16:07:55.218Z,3.38
2022-10-11T16:10:22.789Z,3.10
2022-10-11T16:12:51.587Z,3.47
2022-10-11T16:15:18.748Z,3.58
2022-10-11T16:17:46.814Z,3.42
2022-10-11T16:20:14.772Z,3.17
2022-10-11T16:22:42.685Z,3.05
2022-10-11T16:25:10.062Z,3.25
2022-10-11T16:27:37.376Z,3.47
2022-10-11T16:30:05.400Z,4.32
2022-10-11T16:32:34.590Z,4.60
2022-10-11T16:35:01.806Z,3.55
2022-10-11T16:37:28.996Z,3.22
2022-10-11T16:39:56.196Z,3.10
2022-10-11T16:42:23.362Z,3.80
2022-10-11T16:44:50.720Z,3.95
2022-10-11T16:47:18.941Z,3.65
2022-10-11T16:49:46.675Z,4.15
2022-10-11T16:52:14.450Z,4.68
2022-10-11T16:54:46.746Z,4.60
2022-10-11T16:57:15.985Z,4.53
2022-10-11T16:59:43.369Z,4.93
2022-10-11T17:02:29.888Z,4.18
2022-10-11T17:04:59.654Z,4.18
2022-10-11T17:07:27.789Z,3.78
2022-10-11T17:09:55.221Z,3.30
2022-10-11T17:12:24.207Z,3.95
2022-10-11T17:14:51.870Z,3.42
2022-10-11T17:17:20.145Z,3.65
2022-10-11T17:19:47.944Z,3.65
2022-10-11T17:22:19.647Z,3.97
2022-10-11T17:24:47.017Z,4.30
2022-10-11T17:27:14.351Z,3.90
2022-10-11T17:29:41.698Z,4.88
2022-10-11T17:32:09.066Z,4.13
2022-10-11T17:34:37.515Z,3.90
2022-10-11T17:37:05.015Z,3.60
2022-10-11T17:39:32.361Z,3.92
2022-10-11T17:42:05.162Z,4.20
2022-10-11T17:44:32.341Z,3.78
2022-10-11T17:47:00.544Z,4.30
2022-10-11T17:49:27.710Z,4.70
2022-10-11T17:51:56.870Z,4.65
2022-10-11T17:54:24.656Z,4.70
2022-10-11T17:56:51.987Z,5.75
2022-10-11T17:59:27.616Z,5.20
2022-10-11T18:01:55.041Z,5.10
2022-10-11T18:04:26.804Z,5.50
2022-10-11T18:06:54.335Z,5.50
2022-10-11T18:09:24.989Z,6.03
2022-10-11T18:11:52.457Z,5.95
2022-10-11T18:14:19.867Z,5.72
2022-10-11T18:16:47.286Z,7.03
2022-10-11T18:19:14.902Z,7.43
2022-10-11T18:21:42.314Z,7.28
2022-10-11T18:24:15.670Z,7.45
2022-10-11T18:26:44.306Z,7.57
2022-10-11T18:29:12.854Z,6.35
2022-10-11T18:31:40.804Z,7.25
2022-10-11T18:34:11.665Z,6.93
2022-10-11T18:36:39.477Z,6.38
2022-10-11T18:39:08.890Z,6.20
2022-10-11T18:41:38.903Z,4.85
2022-10-11T18:44:09.123Z,4.82
2022-10-11T18:46:36.760Z,4.20
2022-10-11T18:49:04.671Z,4.15
2022-10-11T18:51:42.357Z,4.03
2022-10-11T18:54:13.944Z,5.50
2022-10-11T18:56:47.190Z,4.97
2022-10-11T18:59:14.441Z,5.18
2022-10-11T19:01:44.787Z,5.13
2022-10-11T19:04:13.848Z,5.40
2022-10-11T19:06:44.403Z,5.50
2022-10-11T19:09:22.128Z,5.32
2022-10-11T19:11:58.049Z,4.82
2022-10-11T19:14:28.556Z,4.63
2022-10-11T19:16:56.591Z,4.68
2022-10-11T19:19:28.594Z,4.15
2022-10-11T19:21:56.339Z,3.60
2022-10-11T19:24:26.752Z,3.67
2022-10-11T19:27:01.364Z,4.10
2022-10-11T19:29:32.607Z,3.10
2022-10-11T19:32:04.251Z,3.25
2022-10-11T19:34:33.474Z,3.05
2022-10-11T19:37:01.470Z,2.90
2022-10-11T19:39:29.756Z,2.90
2022-10-11T19:41:56.932Z,2.95
2022-10-11T19:44:25.516Z,3.10
2022-10-11T19:46:53.270Z,2.45
2022-10-11T19:49:25.173Z,3.13
2022-10-11T19:51:55.861Z,2.88
2022-10-11T19:54:24.566Z,2.90
2022-10-11T19:56:52.001Z,2.58
2022-10-11T19:59:22.003Z,2.92
2022-10-11T20:01:52.781Z,2.83
2022-10-11T20:04:51.958Z,2.67
2022-10-11T20:07:11.261Z,2.90
2022-10-11T20:09:38.471Z,2.90
2022-10-11T20:12:05.857Z,2.92
2022-10-11T20:14:34.230Z,3.05
2022-10-11T20:17:01.453Z,2.80
2022-10-11T20:19:31.411Z,3.05
2022-10-11T20:22:00.237Z,3.00
2022-10-11T20:24:33.124Z,3.33
2022-10-11T20:27:04.690Z,3.03
2022-10-11T20:29:33.025Z,2.70
2022-10-11T20:32:01.386Z,2.78
2022-10-11T20:34:29.210Z,2.95
2022-10-11T20:36:56.606Z,3.75
2022-10-11T20:39:24.182Z,3.50
2022-10-11T20:41:51.466Z,3.95
2022-10-11T20:44:18.674Z,2.45
2022-10-11T20:46:47.290Z,3.20
2022-10-11T20:49:14.840Z,2.85
2022-10-11T20:51:45.548Z,3.00
2022-10-11T20:54:12.872Z,2.72
2022-10-11T20:56:40.504Z,3.25
2022-10-11T20:59:08.244Z,2.58
2022-10-11T21:01:38.942Z,2.67
2022-10-11T21:04:07.725Z,4.00
2022-10-11T21:06:34.919Z,3.20
2022-10-11T21:09:02.821Z,3.15
2022-10-11T21:11:32.079Z,2.92
2022-10-11T21:14:01.499Z,3.03
2022-10-11T21:16:29.060Z,3.30
2022-10-11T21:18:59.027Z,3.17
2022-10-11T21:21:27.529Z,3.42
2022-10-11T21:23:59.820Z,3.05
2022-10-11T21:26:27.994Z,3.92
2022-10-11T21:28:55.676Z,3.20
2022-10-11T21:31:23.850Z,3.40
2022-10-11T21:33:51.372Z,3.20
2022-10-11T21:36:23.339Z,3.25
2022-10-11T21:38:51.547Z,3.63
2022-10-11T21:41:24.703Z,3.05
2022-10-11T21:43:52.887Z,3.03
2022-10-11T21:46:22.962Z,3.33
2022-10-11T21:48:50.784Z,3.60
2022-10-11T21:51:23.452Z,2.90
2022-10-11T21:53:51.244Z,3.15
2022-10-11T21:56:18.621Z,2.72
2022-10-11T21:58:49.963Z,3.17
2022-10-11T22:01:17.616Z,3.30
2022-10-11T22:03:45.512Z,2.90
2022-10-11T22:06:12.870Z,3.30
2022-10-11T22:08:40.753Z,3.17
2022-10-11T22:11:11.333Z,3.40
2022-10-11T22:13:38.669Z,2.97
2022-10-11T22:16:07.566Z,3.58
2022-10-11T22:18:35.104Z,3.22
2022-10-11T22:21:10.154Z,3.45
2022-10-11T22:23:37.363Z,3.67
2022-10-11T22:26:10.389Z,3.45
2022-10-11T22:28:40.391Z,3.20
2022-10-11T22:31:09.196Z,3.00
2022-10-11T22:33:36.806Z,2.92
2022-10-11T22:36:08.974Z,2.85
2022-10-11T22:38:37.463Z,3.53
2022-10-11T22:41:04.866Z,3.58
2022-10-11T22:43:34.350Z,3.05
2022-10-11T22:46:01.912Z,3.33
2022-10-11T22:48:29.351Z,3.20
2022-10-11T22:50:56.589Z,2.80
2022-10-11T22:53:23.776Z,3.47
2022-10-11T22:55:51.298Z,3.40
2022-10-11T22:58:18.423Z,3.15
2022-10-11T23:00:45.815Z,2.63
2022-10-11T23:03:17.544Z,2.92
2022-10-11T23:05:53.528Z,3.33
2022-10-11T23:08:20.655Z,2.90
2022-10-11T23:10:47.803Z,3.72
2022-10-11T23:13:15.079Z,3.30
2022-10-11T23:15:42.549Z,2.88
2022-10-11T23:18:09.851Z,3.10
2022-10-11T23:20:38.816Z,3.72
2022-10-11T23:23:06.790Z,3.40
2022-10-11T23:25:34.218Z,3.28
2022-10-11T23:28:01.794Z,2.63
2022-10-11T23:30:29.926Z,2.90
2022-10-11T23:32:57.146Z,3.17
2022-10-11T23:35:24.331Z,3.10
2022-10-11T23:37:54.473Z,3.30
2022-10-11T23:40:21.867Z,2.95
2022-10-11T23:42:49.055Z,3.60
2022-10-11T23:45:16.289Z,3.33
2022-10-11T23:47:43.560Z,3.08
2022-10-11T23:50:10.813Z,3.13
2022-10-11T23:52:38.007Z,2.97
2022-10-11T23:55:05.578Z,3.17
2022-10-11T23:57:32.754Z,2.97
2022-10-11T23:59:59.949Z,2.75
